Portada
METAR-TAF:

METAR-TAF

Aeroports :

Zaqatala, Azerbaidjan

latitud: 41-33-44N, longitud: 46-40-02E, altitud: 330 m

Observació

L'informe es va fer fa 1 hora i 47 minuts, a les 14:00 UTC
Vent 4 kt del Sud/Sud-Est
Temperatura 5°C
Humitat 87%
Pressió 1022 hPa
Visibilitat: 6000 m
Cel ennuvolat a una alçada de 2700 ft

METAR: UBBY 101400Z 16004KT 6000 BKN027 05/03 Q1022 R33/////// NOSIG RMK MT OP

Hora: 19:47 (15:47 UTC)

Pronòstic

L'informe es va fer fa 1 hora i 36 minuts, a les 14:11 UTC
Pronòstic vàlid del 10 a les 15 UTC al 10 a les 24 UTC
Vent 4 kt amb direcció variable
Visibilitat: 6000 m
Cel ennuvolat a una alçada de 3000 ft

TAF: UBBY 101411Z 1015/1024 VRB04KT 6000 BKN030

Observacions i pronòstics meteorològics de més de 4000 aeroports (METAR i TAF).

Les estacions disponibles són els punts grocs i vermells al mapa.

Posi el ratolí al punt desitjat per veure el nom de l'estació.

Feu clic per veure les observacions i els pronòstics meteorològics.

Per canviar el mapa: feu clic els botons verds amb una creu de color negre per apropar; al botó verd amb un guió per allunyar la imatge; o en les fletxes verdes per a mapes adjacents.


METAR-TAF: